TAF Text Data
IDs:
Format:
Raw Decoded Include METAR

Data at: 0738 UTC 21 Oct 2018

KPGA 210653Z AUTO 00000KT 9SM FEW090 13/07 A3021 RMK AO2 SLP190 T01330067 402060083 TSNO

KPGA 210520Z 2106/2206 VRB04KT P6SM BKN080
  FM211900 04010KT P6SM SCT050
  FM212300 VRB04KT P6SM BKN035
  PROB30 2200/2206 VRB10G20KT -TSRA BKN035CB